Terminal Aerodrome Forecast
Issued by NWS

Current Version | Previous Version | Text Only | Print | Product List | Glossary On
Versions: 1 2 3 4 5 6 7 8 9 10 11 12 13 14 15 16 17 18 19 20 21 22 23 24 25 26
000
FTUS45 KREV 251129
TAFTRK
TAF
KTRK 251129Z 2512/2612 VRB03KT 1/4SM FZFG OVC002
     FM251500 VRB04KT P6SM VCSH FEW002 SCT040 BKN070
     FM251700 VRB04KT P6SM VCSH SCT035 BKN060
     FM252300 20006KT P6SM SCT060 BKN100
     FM260400 VRB03KT P6SM SCT100 BKN180=

USA.gov is the U.S. government's official web portal to all federal, state and local government web resources and services.